Time;durP1;ratioP1;P1;durP2;ratioP2;P2;SDS_P1;SDS_P2;PMS_P1;PMS_P2;Temp;Humidity;BMP_temperature;BMP_pressure;BME280_temperature;BME280_humidity;BME280_pressure;Samples;Min_cycle;Max_cycle;Signal;HPM_P1;HPM_P2
2023/07/01 00:00:10;;;;;;;9.23;8.30;;;;;;;19.72;76.08;99487.81;5130232;27;20290;-62
2023/07/01 00:02:38;;;;;;;9.27;8.43;;;;;;;19.74;76.25;99485.97;5132923;27;20207;-62
2023/07/01 00:05:08;;;;;;;9.07;8.20;;;;;;;19.77;76.50;99489.22;5135465;27;20223;-62
2023/07/01 00:07:36;;;;;;;9.38;8.43;;;;;;;19.82;76.59;99485.50;5130852;27;20215;-62
2023/07/01 00:10:04;;;;;;;9.98;9.13;;;;;;;19.84;76.54;99496.69;5128737;27;20711;-63
2023/07/01 00:12:32;;;;;;;9.38;8.40;;;;;;;19.87;76.74;99488.69;5131115;27;20286;-63
2023/07/01 00:15:03;;;;;;;10.65;9.65;;;;;;;19.90;76.57;99497.19;5126815;27;20605;-62
2023/07/01 00:17:31;;;;;;;9.85;8.85;;;;;;;19.91;76.29;99487.56;5129746;27;20294;-61
2023/07/01 00:19:59;;;;;;;11.52;9.40;;;;;;;19.90;75.68;99488.50;5130753;27;20221;-63
2023/07/01 00:22:27;;;;;;;10.73;9.73;;;;;;;19.80;76.65;99488.19;5131849;27;20232;-63
2023/07/01 00:24:56;;;;;;;10.02;9.13;;;;;;;19.68;76.44;99494.97;5129930;27;20203;-62
2023/07/01 00:27:24;;;;;;;10.35;9.35;;;;;;;19.62;76.94;99490.09;5135188;27;20215;-63
2023/07/01 00:29:52;;;;;;;11.38;10.20;;;;;;;19.51;77.42;99484.63;5132324;27;20241;-61
2023/07/01 00:32:21;;;;;;;10.43;9.50;;;;;;;19.44;77.36;99485.91;5128062;27;20203;-62
2023/07/01 00:34:50;;;;;;;11.10;9.98;;;;;;;19.42;77.60;99495.59;5130103;27;20247;-63
2023/07/01 00:37:18;;;;;;;9.88;8.88;;;;;;;19.33;77.97;99489.16;5128701;27;20254;-62
2023/07/01 00:39:46;;;;;;;11.65;10.45;;;;;;;19.27;78.24;99490.31;5130972;27;20647;-63
2023/07/01 00:42:14;;;;;;;11.13;9.93;;;;;;;19.26;78.14;99487.81;5130164;27;20222;-61
2023/07/01 00:44:42;;;;;;;11.02;10.02;;;;;;;19.19;78.40;99489.06;5130573;27;20204;-62
2023/07/01 00:47:12;;;;;;;10.73;9.75;;;;;;;19.17;78.21;99496.13;5130601;27;20772;-63
2023/07/01 00:49:42;;;;;;;10.55;9.60;;;;;;;19.17;78.51;99489.13;5130012;27;20203;-63
2023/07/01 00:52:10;;;;;;;10.93;9.80;;;;;;;19.15;78.87;99492.78;5128744;27;20260;-62
2023/07/01 00:54:39;;;;;;;11.27;10.07;;;;;;;19.17;78.68;99490.91;5130579;27;20200;-63
2023/07/01 00:57:07;;;;;;;10.55;9.43;;;;;;;19.19;77.85;99495.13;5131525;27;20203;-62
2023/07/01 00:59:35;;;;;;;10.40;9.48;;;;;;;19.15;78.03;99491.00;5129794;28;20562;-62
2023/07/01 01:02:11;;;;;;;9.60;8.68;;;;;;;19.11;77.76;99493.84;5129926;27;20205;-62
2023/07/01 01:04:46;;;;;;;9.27;8.48;;;;;;;19.11;77.84;99488.63;5128686;27;20202;-61
2023/07/01 01:07:20;;;;;;;11.50;8.50;;;;;;;19.11;77.82;99494.72;5127499;27;20244;-61
2023/07/01 01:09:52;;;;;;;10.13;9.13;;;;;;;19.06;77.61;99478.44;5126521;27;20226;-63
2023/07/01 01:12:22;;;;;;;9.20;8.35;;;;;;;19.03;77.64;99486.44;5130554;27;20285;-62
2023/07/01 01:14:52;;;;;;;9.40;8.50;;;;;;;18.98;77.78;99478.03;5128868;27;20203;-64
2023/07/01 01:17:24;;;;;;;9.68;8.68;;;;;;;18.95;77.95;99472.97;5129472;27;20260;-62
2023/07/01 01:19:59;;;;;;;9.38;8.48;;;;;;;18.96;77.90;99474.66;5131464;27;20912;-62
2023/07/01 01:22:35;;;;;;;9.48;8.40;;;;;;;18.98;77.93;99473.66;5133737;27;20203;-62
2023/07/01 01:25:14;;;;;;;10.05;9.15;;;;;;;19.00;77.86;99470.94;5132124;27;20626;-62
2023/07/01 01:27:44;;;;;;;8.45;7.75;;;;;;;19.08;78.38;99478.38;5132193;27;20222;-61
2023/07/01 01:30:14;;;;;;;10.85;9.13;;;;;;;19.15;78.44;99480.56;5136006;27;20222;-62
2023/07/01 01:32:41;;;;;;;9.23;8.48;;;;;;;19.22;78.27;99481.91;5132009;27;20214;-63
2023/07/01 01:35:09;;;;;;;9.77;8.93;;;;;;;19.27;77.99;99479.03;5128538;27;20204;-62
2023/07/01 01:37:42;;;;;;;9.50;8.70;;;;;;;19.29;78.01;99478.03;5135084;27;20274;-62
2023/07/01 01:40:15;;;;;;;10.60;9.57;;;;;;;19.33;77.28;99473.47;5130747;27;20227;-61
2023/07/01 01:42:47;;;;;;;9.38;8.55;;;;;;;19.33;77.60;99481.31;5134038;27;20276;-63
2023/07/01 01:45:19;;;;;;;10.50;9.40;;;;;;;19.31;77.79;99475.31;5133385;27;20211;-61
2023/07/01 01:47:49;;;;;;;10.60;9.35;;;;;;;19.30;77.77;99477.09;5133806;27;20215;-60
2023/07/01 01:50:21;;;;;;;10.23;9.15;;;;;;;19.27;77.74;99484.25;5125424;27;20252;-62
2023/07/01 01:52:52;;;;;;;9.73;8.82;;;;;;;19.25;77.63;99476.47;5132346;27;20203;-61
2023/07/01 01:55:22;;;;;;;10.15;9.20;;;;;;;19.23;77.82;99478.34;5131700;27;20519;-61
2023/07/01 01:57:52;;;;;;;10.43;9.20;;;;;;;19.22;77.84;99479.31;5133632;27;20198;-63
2023/07/01 02:00:21;;;;;;;10.00;9.20;;;;;;;19.17;77.91;99476.09;5130388;27;20230;-62
2023/07/01 02:02:49;;;;;;;10.00;9.10;;;;;;;19.14;78.02;99483.25;5133535;27;20610;-63
2023/07/01 02:05:17;;;;;;;10.40;9.50;;;;;;;19.05;78.33;99480.22;5134061;27;20225;-62
2023/07/01 02:07:45;;;;;;;11.25;10.20;;;;;;;19.05;78.88;99479.38;5132561;27;20226;-62
2023/07/01 02:10:13;;;;;;;10.93;9.52;;;;;;;19.10;79.11;99482.56;5130003;27;20207;-61
2023/07/01 02:12:42;;;;;;;11.13;10.02;;;;;;;19.16;78.84;99486.63;5134498;27;20268;-63
2023/07/01 02:15:11;;;;;;;10.93;9.93;;;;;;;19.16;78.71;99479.63;5131841;27;20252;-63
2023/07/01 02:17:39;;;;;;;11.80;10.32;;;;;;;19.17;78.65;99476.09;5133193;27;20210;-63
2023/07/01 02:20:09;;;;;;;10.73;9.73;;;;;;;19.18;78.95;99475.16;5132025;27;20218;-61
2023/07/01 02:22:37;;;;;;;11.43;10.32;;;;;;;19.20;78.97;99475.91;5130994;27;20249;-62
2023/07/01 02:25:07;;;;;;;11.90;10.80;;;;;;;19.18;78.93;99484.75;5132255;27;20567;-62
2023/07/01 02:27:35;;;;;;;11.88;10.50;;;;;;;19.14;78.94;99478.84;5127601;27;20243;-62
2023/07/01 02:30:03;;;;;;;13.32;10.65;;;;;;;19.13;79.22;99477.19;5133498;27;20202;-62
2023/07/01 02:32:33;;;;;;;11.88;10.88;;;;;;;19.18;79.48;99480.38;5130682;27;20213;-62
2023/07/01 02:35:01;;;;;;;12.00;11.00;;;;;;;19.21;79.28;99471.53;5127822;27;20214;-62
2023/07/01 02:37:29;;;;;;;12.93;11.65;;;;;;;19.26;79.32;99475.59;5133705;27;20252;-62
2023/07/01 02:39:57;;;;;;;13.35;12.00;;;;;;;19.29;79.15;99461.47;5131666;27;20654;-61
2023/07/01 02:42:25;;;;;;;13.70;12.30;;;;;;;19.35;78.91;99465.53;5132793;27;20199;-63
2023/07/01 02:44:53;;;;;;;13.45;12.18;;;;;;;19.36;78.78;99461.97;5133215;27;20235;-62
2023/07/01 02:47:21;;;;;;;13.35;12.15;;;;;;;19.35;78.95;99455.09;5132481;27;20235;-62
2023/07/01 02:49:50;;;;;;;13.10;11.80;;;;;;;19.36;78.88;99456.75;5133705;27;20612;-62
2023/07/01 02:52:18;;;;;;;13.68;12.48;;;;;;;19.36;78.98;99462.81;5134305;27;20207;-61
2023/07/01 02:54:46;;;;;;;13.30;12.00;;;;;;;19.38;78.84;99460.13;5132564;27;20256;-62
2023/07/01 02:57:14;;;;;;;13.55;12.23;;;;;;;19.41;78.92;99459.97;5129169;27;20207;-62
2023/07/01 02:59:43;;;;;;;13.63;12.38;;;;;;;19.41;79.02;99460.81;5132876;27;22184;-61
2023/07/01 03:02:11;;;;;;;14.68;13.32;;;;;;;19.42;79.13;99461.63;5134179;27;20294;-61
2023/07/01 03:04:39;;;;;;;14.38;13.02;;;;;;;19.41;79.04;99454.75;5132813;27;20571;-61
2023/07/01 03:07:09;;;;;;;14.60;13.15;;;;;;;19.40;79.17;99447.81;5132069;27;20650;-62
2023/07/01 03:09:37;;;;;;;13.70;12.48;;;;;;;19.38;79.02;99455.75;5133490;27;20195;-61
2023/07/01 03:12:06;;;;;;;17.63;13.18;;;;;;;19.39;79.08;99456.59;5129985;27;20335;-62
2023/07/01 03:14:33;;;;;;;14.63;13.32;;;;;;;19.40;79.39;99453.03;5132075;27;20202;-62
2023/07/01 03:17:03;;;;;;;13.85;12.52;;;;;;;19.43;79.03;99452.88;5130836;27;20207;-63
2023/07/01 03:19:34;;;;;;;15.05;13.65;;;;;;;19.42;78.81;99457.25;5129489;27;20206;-61
2023/07/01 03:22:02;;;;;;;14.40;13.05;;;;;;;19.36;78.81;99452.38;5131747;27;20673;-61
2023/07/01 03:24:33;;;;;;;14.48;13.18;;;;;;;19.34;78.91;99451.63;5131810;27;20199;-61
2023/07/01 03:27:03;;;;;;;16.45;14.85;;;;;;;19.33;79.24;99442.13;5131309;27;20211;-61
2023/07/01 03:29:31;;;;;;;15.52;13.88;;;;;;;19.31;79.27;99444.81;5130536;27;20269;-62
2023/07/01 03:31:59;;;;;;;15.65;14.05;;;;;;;19.28;79.18;99444.13;5132516;27;20202;-62
2023/07/01 03:34:27;;;;;;;15.27;13.85;;;;;;;19.27;79.26;99443.28;5128058;27;20199;-61
2023/07/01 03:36:56;;;;;;;14.50;13.10;;;;;;;19.26;79.24;99444.25;5137162;27;20206;-62
2023/07/01 03:39:24;;;;;;;14.43;13.00;;;;;;;19.30;79.44;99437.91;5136216;27;20266;-62
2023/07/01 03:41:53;;;;;;;15.60;14.23;;;;;;;19.37;79.42;99442.75;5132527;27;20203;-61
2023/07/01 03:44:21;;;;;;;14.25;12.85;;;;;;;19.40;79.10;99448.66;5130364;27;20207;-62
2023/07/01 03:46:49;;;;;;;15.02;13.63;;;;;;;19.44;79.14;99449.31;5132695;27;20202;-61
2023/07/01 03:49:17;;;;;;;14.77;13.48;;;;;;;19.51;79.14;99443.69;5130105;27;20267;-64
2023/07/01 03:51:45;;;;;;;14.90;13.50;;;;;;;19.52;78.47;99439.28;5127344;27;20758;-62
2023/07/01 03:54:13;;;;;;;14.98;13.68;;;;;;;19.50;78.58;99438.53;5129432;27;20225;-61
2023/07/01 03:56:41;;;;;;;14.50;13.18;;;;;;;19.50;78.50;99438.53;5128604;27;20206;-63
2023/07/01 03:59:11;;;;;;;14.65;13.20;;;;;;;19.53;78.28;99449.63;5132033;27;20282;-63
2023/07/01 04:01:39;;;;;;;15.70;14.20;;;;;;;19.49;78.51;99448.13;5131204;27;20233;-63
2023/07/01 04:04:07;;;;;;;16.15;13.50;;;;;;;19.50;78.46;99451.59;5131527;27;20592;-62
2023/07/01 04:06:35;;;;;;;14.93;13.07;;;;;;;19.52;78.48;99454.97;5126467;27;20204;-62
2023/07/01 04:09:03;;;;;;;14.88;13.48;;;;;;;19.51;78.51;99448.03;5130546;27;20215;-62
2023/07/01 04:11:32;;;;;;;14.55;13.07;;;;;;;19.51;78.17;99445.41;5129290;27;20615;-62
2023/07/01 04:14:00;;;;;;;15.25;13.70;;;;;;;19.58;78.51;99451.97;5131082;27;20233;-62
2023/07/01 04:16:29;;;;;;;14.25;12.82;;;;;;;19.67;77.45;99451.47;5131532;27;20694;-63
2023/07/01 04:18:57;;;;;;;14.15;12.75;;;;;;;19.72;77.23;99452.03;5129568;27;20195;-63
2023/07/01 04:21:25;;;;;;;13.93;12.52;;;;;;;19.78;76.47;99437.78;5129782;27;20213;-62
2023/07/01 04:23:53;;;;;;;13.85;12.45;;;;;;;19.79;76.41;99445.53;5130551;27;20203;-62
2023/07/01 04:26:21;;;;;;;13.20;11.90;;;;;;;19.86;76.52;99450.41;5131339;27;20238;-61
2023/07/01 04:28:49;;;;;;;13.77;12.55;;;;;;;19.90;76.49;99457.13;5132139;27;20302;-64
2023/07/01 04:31:18;;;;;;;12.40;11.18;;;;;;;19.92;76.42;99456.13;5130961;27;20210;-62
2023/07/01 04:33:48;;;;;;;13.93;12.38;;;;;;;19.92;76.08;99453.50;5129757;27;20614;-62
2023/07/01 04:36:16;;;;;;;13.68;11.85;;;;;;;19.89;76.25;99447.59;5131105;27;20201;-62
2023/07/01 04:38:44;;;;;;;14.63;12.70;;;;;;;19.86;75.89;99456.47;5131777;27;20239;-63
2023/07/01 04:41:13;;;;;;;11.95;10.85;;;;;;;19.87;76.14;99444.22;5130596;27;20207;-62
2023/07/01 04:43:41;;;;;;;13.10;11.77;;;;;;;19.90;75.94;99449.28;5129114;27;20248;-62
2023/07/01 04:46:09;;;;;;;13.65;11.38;;;;;;;19.91;75.54;99448.34;5127846;27;20612;-64
2023/07/01 04:48:37;;;;;;;12.45;11.15;;;;;;;19.86;75.67;99450.41;5129176;27;20264;-62
2023/07/01 04:51:07;;;;;;;12.88;11.57;;;;;;;19.84;75.33;99447.84;5129553;27;20638;-62
2023/07/01 04:53:35;;;;;;;12.55;11.25;;;;;;;19.83;76.05;99445.34;5124213;28;20205;-63
2023/07/01 04:56:03;;;;;;;11.10;10.10;;;;;;;19.86;75.71;99450.41;5127521;27;20219;-62
2023/07/01 04:58:31;;;;;;;11.23;10.07;;;;;;;19.88;75.51;99448.53;5139392;27;20198;-62
2023/07/01 05:00:59;;;;;;;11.30;9.93;;;;;;;19.93;75.25;99451.72;5135155;27;20222;-61
2023/07/01 05:03:27;;;;;;;10.95;9.75;;;;;;;19.98;74.66;99441.81;5132939;27;20199;-62
2023/07/01 05:05:55;;;;;;;10.55;9.60;;;;;;;20.01;74.60;99437.25;5135446;27;20200;-64
2023/07/01 05:08:25;;;;;;;11.10;9.95;;;;;;;20.10;74.19;99455.94;5137598;27;20201;-64
2023/07/01 05:10:53;;;;;;;11.32;10.13;;;;;;;20.19;73.79;99458.00;5136653;27;20237;-63
2023/07/01 05:13:21;;;;;;;10.35;9.35;;;;;;;20.25;73.28;99457.59;5135257;27;20210;-63
2023/07/01 05:15:49;;;;;;;11.43;10.32;;;;;;;20.27;72.89;99451.34;5136570;27;20563;-64
2023/07/01 05:18:17;;;;;;;10.15;9.20;;;;;;;20.30;73.29;99452.13;5134630;27;20203;-64
2023/07/01 05:20:45;;;;;;;11.32;9.75;;;;;;;20.33;73.17;99450.16;5137755;27;20224;-66
2023/07/01 05:23:14;;;;;;;11.20;10.10;;;;;;;20.38;73.19;99453.31;5133621;27;20646;-64
2023/07/01 05:25:43;;;;;;;12.55;10.40;;;;;;;20.45;72.78;99453.78;5137559;27;20201;-64
2023/07/01 05:28:11;;;;;;;12.55;10.85;;;;;;;20.46;72.49;99453.69;5137100;27;20294;-63
2023/07/01 05:30:39;;;;;;;12.32;10.73;;;;;;;20.48;72.17;99458.84;5141758;27;20275;-64
2023/07/01 05:33:10;;;;;;;12.00;9.65;;;;;;;20.48;72.58;99456.22;5132436;27;20237;-65
2023/07/01 05:35:38;;;;;;;9.98;8.95;;;;;;;20.50;71.90;99451.75;5135789;27;20604;-62
2023/07/01 05:38:09;;;;;;;11.63;9.07;;;;;;;20.50;71.34;99472.69;5135330;27;20555;-65
2023/07/01 05:40:37;;;;;;;10.63;9.57;;;;;;;20.40;71.62;99464.53;5136956;27;20723;-65
2023/07/01 05:43:07;;;;;;;11.38;10.27;;;;;;;20.35;71.79;99468.38;5132795;27;20571;-65
2023/07/01 05:45:35;;;;;;;10.75;9.75;;;;;;;20.30;72.49;99466.03;5138828;27;20202;-65
2023/07/01 05:48:03;;;;;;;11.07;9.95;;;;;;;20.34;72.06;99472.75;5134296;27;20206;-63
2023/07/01 05:50:31;;;;;;;15.73;10.10;;;;;;;20.33;71.77;99473.69;5138452;27;20303;-64
2023/07/01 05:52:59;;;;;;;11.07;9.70;;;;;;;20.39;72.05;99469.84;5137123;27;20207;-63
2023/07/01 05:55:27;;;;;;;10.98;9.88;;;;;;;20.41;71.87;99478.47;5137694;27;20304;-64
2023/07/01 05:57:55;;;;;;;14.05;11.20;;;;;;;20.40;71.25;99476.75;5133884;27;20630;-63
2023/07/01 06:00:25;;;;;;;10.85;9.73;;;;;;;20.37;71.39;99475.19;5134793;27;20203;-63
2023/07/01 06:02:53;;;;;;;11.32;10.02;;;;;;;20.39;70.83;99477.72;5134982;27;20306;-63
2023/07/01 06:05:21;;;;;;;12.23;10.25;;;;;;;20.31;70.83;99478.19;5129596;27;20202;-63
2023/07/01 06:07:50;;;;;;;12.00;9.63;;;;;;;20.23;70.99;99476.03;5135232;27;20222;-64
2023/07/01 06:10:18;;;;;;;10.93;9.57;;;;;;;20.21;71.35;99479.66;5133845;27;20234;-65
2023/07/01 06:12:48;;;;;;;13.05;9.30;;;;;;;20.26;71.63;99481.06;5139679;27;20568;-63
2023/07/01 06:15:16;;;;;;;10.55;9.50;;;;;;;20.35;71.24;99484.91;5136871;27;20228;-64
2023/07/01 06:17:45;;;;;;;9.90;8.93;;;;;;;20.40;71.04;99477.63;5132199;27;20202;-64
2023/07/01 06:20:14;;;;;;;9.73;8.73;;;;;;;20.44;71.00;99486.13;5129451;27;20244;-64
2023/07/01 06:22:42;;;;;;;10.60;9.60;;;;;;;20.52;70.79;99483.06;5131941;27;20295;-63
2023/07/01 06:25:10;;;;;;;10.13;9.13;;;;;;;20.57;70.66;99483.63;5135267;27;20300;-63
2023/07/01 06:27:39;;;;;;;10.43;9.40;;;;;;;20.57;70.27;99489.69;5132551;27;20218;-65
2023/07/01 06:30:08;;;;;;;10.27;9.27;;;;;;;20.56;70.42;99487.19;5130281;27;20310;-63
2023/07/01 06:32:37;;;;;;;10.02;8.43;;;;;;;20.59;70.29;99479.97;5131725;27;20714;-64
2023/07/01 06:35:07;;;;;;;9.85;8.75;;;;;;;20.67;69.92;99489.97;5131446;27;20314;-64
2023/07/01 06:37:35;;;;;;;11.70;10.25;;;;;;;20.75;69.24;99492.94;5129772;27;20290;-63
2023/07/01 06:40:04;;;;;;;10.93;9.77;;;;;;;20.79;69.24;99493.59;5134396;27;20235;-64
2023/07/01 06:42:32;;;;;;;11.13;9.90;;;;;;;20.84;69.04;99491.53;5131135;27;20235;-64
2023/07/01 06:45:00;;;;;;;9.88;8.82;;;;;;;20.89;68.95;99486.84;5135794;27;20314;-63
2023/07/01 06:47:28;;;;;;;10.93;8.93;;;;;;;20.84;69.00;99494.16;5124022;27;20631;-63
2023/07/01 06:49:56;;;;;;;10.40;9.30;;;;;;;20.84;69.09;99488.91;5127753;27;20592;-64
2023/07/01 06:52:26;;;;;;;11.48;9.77;;;;;;;20.83;68.60;99488.06;5129843;27;20305;-64
2023/07/01 06:54:54;;;;;;;10.85;9.70;;;;;;;20.88;68.61;99482.56;5134059;27;20734;-63
2023/07/01 06:57:22;;;;;;;10.65;9.10;;;;;;;20.99;68.41;99490.59;5134053;27;20191;-64
2023/07/01 06:59:50;;;;;;;10.90;9.20;;;;;;;21.06;67.77;99486.63;5131299;27;21552;-63
2023/07/01 07:02:18;;;;;;;10.90;9.80;;;;;;;21.09;67.99;99486.41;5130785;27;20698;-65
2023/07/01 07:04:50;;;;;;;11.60;9.18;;;;;;;21.20;67.79;99486.56;5131736;27;20199;-64
2023/07/01 07:07:18;;;;;;;12.30;9.30;;;;;;;21.28;67.21;99486.06;5116720;27;20380;-64
2023/07/01 07:09:48;;;;;;;9.35;8.27;;;;;;;21.37;66.87;99485.53;5127376;27;20237;-64
2023/07/01 07:12:16;;;;;;;9.40;8.40;;;;;;;21.46;66.57;99484.06;5133646;27;20202;-64
2023/07/01 07:14:44;;;;;;;9.68;8.43;;;;;;;21.52;66.29;99491.53;5126990;27;20794;-64
2023/07/01 07:17:12;;;;;;;11.40;9.27;;;;;;;21.58;65.94;99498.19;5129571;27;20706;-63
2023/07/01 07:19:40;;;;;;;10.60;8.15;;;;;;;21.60;65.44;99493.66;5131951;27;20195;-64
2023/07/01 07:22:08;;;;;;;8.43;7.55;;;;;;;21.54;65.27;99497.53;5134079;27;20207;-64
2023/07/01 07:24:37;;;;;;;9.60;8.07;;;;;;;21.52;65.23;99502.03;5130572;27;20205;-64
2023/07/01 07:27:07;;;;;;;9.52;8.05;;;;;;;21.53;65.07;99503.69;5132947;27;20661;-63
2023/07/01 07:29:35;;;;;;;8.13;7.32;;;;;;;21.60;65.40;99485.78;5130637;27;20203;-64
2023/07/01 07:32:04;;;;;;;9.23;8.32;;;;;;;21.76;65.11;99490.84;5133692;27;20195;-64
2023/07/01 07:34:32;;;;;;;11.02;9.52;;;;;;;21.94;64.30;99498.34;5132144;27;20231;-63
2023/07/01 07:37:00;;;;;;;9.73;8.15;;;;;;;22.02;63.89;99499.59;5133714;27;20614;-64
2023/07/01 07:39:29;;;;;;;8.50;7.43;;;;;;;22.22;63.36;99493.03;5129999;27;20242;-63
2023/07/01 07:41:58;;;;;;;11.18;8.40;;;;;;;22.34;62.24;99492.19;5131815;27;20628;-63
2023/07/01 07:44:27;;;;;;;10.52;7.95;;;;;;;22.46;61.55;99490.47;5139069;27;20579;-63
2023/07/01 07:46:55;;;;;;;10.73;8.20;;;;;;;22.59;61.05;99488.69;5131326;27;20675;-62
2023/07/01 07:49:24;;;;;;;12.00;8.35;;;;;;;22.54;61.27;99494.28;5130746;27;20245;-63
2023/07/01 07:51:52;;;;;;;9.73;8.32;;;;;;;22.44;61.05;99495.84;5122359;27;20271;-63
2023/07/01 07:54:20;;;;;;;10.13;8.10;;;;;;;22.25;61.27;99484.97;5130383;27;20207;-64
2023/07/01 07:56:48;;;;;;;9.68;8.07;;;;;;;22.02;61.88;99487.34;5118612;27;20205;-64
2023/07/01 07:59:17;;;;;;;9.98;8.50;;;;;;;21.86;62.55;99497.16;5126115;27;20646;-63
2023/07/01 08:01:46;;;;;;;12.32;8.63;;;;;;;21.74;63.60;99492.75;5131943;27;20210;-63
2023/07/01 08:04:14;;;;;;;10.07;8.27;;;;;;;21.66;63.91;99498.50;5130574;27;20214;-63
2023/07/01 08:06:43;;;;;;;12.00;8.70;;;;;;;21.63;64.28;99480.34;5130585;27;20244;-62
2023/07/01 08:09:11;;;;;;;12.70;9.43;;;;;;;21.64;64.46;99482.84;5128182;27;20227;-64
2023/07/01 08:11:39;;;;;;;12.30;8.98;;;;;;;21.73;65.07;99486.66;5127038;27;20249;-63
2023/07/01 08:14:07;;;;;;;13.52;9.27;;;;;;;21.95;64.53;99480.81;5132395;27;20261;-63
2023/07/01 08:16:35;;;;;;;10.40;8.63;;;;;;;22.14;63.24;99481.28;5129941;27;20195;-64
2023/07/01 08:19:04;;;;;;;11.52;9.00;;;;;;;22.17;62.60;99486.31;5129754;27;20265;-62
2023/07/01 08:21:35;;;;;;;13.60;8.65;;;;;;;22.11;62.39;99486.69;5127223;27;20298;-63
2023/07/01 08:24:04;;;;;;;11.48;8.27;;;;;;;22.08;62.61;99486.91;5129767;27;20675;-63
2023/07/01 08:26:32;;;;;;;11.20;8.90;;;;;;;22.00;62.59;99481.34;5131124;27;20223;-63
2023/07/01 08:29:00;;;;;;;11.68;8.68;;;;;;;21.90;62.40;99483.72;5125972;27;20207;-65
2023/07/01 08:31:31;;;;;;;12.27;9.20;;;;;;;21.85;62.97;99492.88;5126496;27;20215;-63
2023/07/01 08:33:59;;;;;;;13.55;8.73;;;;;;;21.85;63.36;99485.84;5130569;27;20218;-65
2023/07/01 08:36:29;;;;;;;9.88;8.27;;;;;;;21.81;62.56;99481.75;5128883;27;20199;-64
2023/07/01 08:38:57;;;;;;;10.88;8.38;;;;;;;21.73;63.13;99485.84;5140601;27;20231;-64
2023/07/01 08:41:26;;;;;;;9.52;8.07;;;;;;;21.71;63.31;99488.53;5133931;27;20206;-65
2023/07/01 08:43:55;;;;;;;9.48;8.02;;;;;;;21.70;63.14;99487.69;5128430;27;20199;-65
2023/07/01 08:46:23;;;;;;;8.80;7.85;;;;;;;21.73;63.43;99486.66;5132124;27;20195;-64
2023/07/01 08:48:52;;;;;;;12.13;8.63;;;;;;;21.83;63.37;99481.63;5131994;27;20235;-65
2023/07/01 08:51:26;;;;;;;10.07;8.43;;;;;;;22.04;63.04;99487.22;5131812;27;20227;-65
2023/07/01 08:53:58;;;;;;;13.32;8.70;;;;;;;22.29;61.92;99482.00;5129550;28;20203;-64
2023/07/01 08:56:26;;;;;;;11.23;8.60;;;;;;;22.28;61.29;99482.13;5131888;28;20195;-65
2023/07/01 08:58:54;;;;;;;10.70;8.45;;;;;;;22.21;61.12;99476.44;5130952;27;20561;-64
2023/07/01 09:01:22;;;;;;;11.80;8.57;;;;;;;22.39;61.24;99463.84;5129885;27;20248;-64
2023/07/01 09:03:51;;;;;;;12.25;9.25;;;;;;;22.64;59.61;99469.06;5119841;28;20652;-65
2023/07/01 09:06:20;;;;;;;9.52;8.40;;;;;;;22.86;59.11;99467.50;5132039;28;20225;-67
2023/07/01 09:08:48;;;;;;;11.23;8.52;;;;;;;23.24;58.54;99466.56;5131815;27;20546;-65
2023/07/01 09:11:20;;;;;;;9.05;8.13;;;;;;;23.38;55.19;99458.47;5127885;27;20577;-65
2023/07/01 09:13:55;;;;;;;9.25;7.88;;;;;;;23.22;56.39;99468.47;5128405;27;20203;-65
2023/07/01 09:16:32;;;;;;;10.60;7.57;;;;;;;23.26;56.82;99480.41;5123553;27;20614;-63
2023/07/01 09:19:05;;;;;;;11.07;8.25;;;;;;;23.43;56.52;99472.13;5132108;28;20540;-65
2023/07/01 09:21:34;;;;;;;11.30;8.27;;;;;;;23.87;56.30;99462.75;5130987;27;20554;-64
2023/07/01 09:24:05;;;;;;;9.25;8.20;;;;;;;24.36;54.65;99461.59;5131726;28;20231;-65
2023/07/01 09:26:34;;;;;;;9.23;8.20;;;;;;;24.75;53.08;99464.72;5132050;28;20203;-63
2023/07/01 09:29:10;;;;;;;9.32;8.18;;;;;;;24.77;51.52;99463.59;5131138;27;20255;-66
2023/07/01 09:31:46;;;;;;;11.50;8.80;;;;;;;24.29;53.08;99460.38;5129673;27;20301;-64
2023/07/01 09:34:16;;;;;;;8.80;7.90;;;;;;;23.90;54.40;99464.28;5130237;27;20205;-64
2023/07/01 09:36:45;;;;;;;9.63;8.63;;;;;;;23.77;55.90;99464.38;5129935;27;20195;-63
2023/07/01 09:39:13;;;;;;;10.10;8.68;;;;;;;23.63;56.67;99468.00;5135062;27;20851;-64
2023/07/01 09:41:42;;;;;;;11.20;9.27;;;;;;;23.39;57.02;99468.06;5132115;27;20559;-65
2023/07/01 09:44:18;;;;;;;10.63;9.38;;;;;;;23.04;58.19;99466.22;5135809;27;20621;-64
2023/07/01 09:46:49;;;;;;;12.43;8.98;;;;;;;22.78;59.17;99470.69;5135898;27;20202;-65
2023/07/01 09:49:18;;;;;;;11.35;9.20;;;;;;;22.68;59.57;99461.75;5135643;27;20203;-65
2023/07/01 09:51:48;;;;;;;11.68;9.63;;;;;;;22.62;59.55;99468.31;5133117;27;20207;-65
2023/07/01 09:54:27;;;;;;;10.32;9.23;;;;;;;22.44;60.05;99464.34;5141307;27;20202;-65
2023/07/01 09:56:58;;;;;;;11.68;9.43;;;;;;;22.35;60.68;99457.09;5137052;27;20195;-64
2023/07/01 09:59:27;;;;;;;11.93;9.35;;;;;;;22.42;60.86;99461.84;5132861;27;20199;-64
2023/07/01 10:01:57;;;;;;;13.18;9.82;;;;;;;23.09;60.05;99453.59;5133709;27;20199;-65
2023/07/01 10:04:28;;;;;;;12.05;9.27;;;;;;;23.74;57.63;99452.28;5135047;27;20210;-64
2023/07/01 10:06:58;;;;;;;13.80;9.80;;;;;;;24.61;55.92;99447.34;5132862;27;20199;-65
2023/07/01 10:09:27;;;;;;;11.25;8.13;;;;;;;25.29;52.95;99440.97;5135291;27;20259;-66
2023/07/01 10:12:00;;;;;;;10.90;8.40;;;;;;;25.50;51.35;99448.91;5131383;27;20226;-64
2023/07/01 10:14:34;;;;;;;9.77;8.10;;;;;;;26.28;51.30;99444.09;5124483;27;20208;-64
2023/07/01 10:17:03;;;;;;;11.90;8.93;;;;;;;27.08;47.76;99450.34;5130868;27;20988;-65
2023/07/01 10:19:32;;;;;;;10.23;8.85;;;;;;;27.12;46.22;99439.38;5134062;27;20211;-65
2023/07/01 10:22:34;;;;;;;10.98;7.93;;;;;;;27.06;46.96;99436.41;5131213;27;20238;-65
2023/07/01 10:25:04;;;;;;;10.98;8.13;;;;;;;26.67;47.15;99439.00;5069255;28;20203;-63
2023/07/01 10:28:13;;;;;;;11.27;8.82;;;;;;;26.07;48.16;99440.66;5068178;28;20212;-64
2023/07/01 10:31:14;;;;;;;11.77;9.23;;;;;;;25.32;50.00;99437.25;5111300;27;20207;-64
2023/07/01 10:33:55;;;;;;;9.82;8.75;;;;;;;25.25;50.58;99431.63;5132976;27;20206;-61
2023/07/01 10:36:24;;;;;;;9.85;8.55;;;;;;;25.13;50.89;99431.81;5127406;27;20695;-62
2023/07/01 10:38:52;;;;;;;11.25;9.20;;;;;;;24.91;51.74;99427.41;5127236;27;20239;-62
2023/07/01 10:41:53;;;;;;;10.52;8.57;;;;;;;24.65;52.45;99432.97;5130713;27;20215;-63
2023/07/01 10:44:25;;;;;;;10.68;8.73;;;;;;;25.52;51.28;99419.78;5127848;27;21812;-62
2023/07/01 10:47:16;;;;;;;11.18;8.80;;;;;;;26.02;48.68;99407.56;5132838;27;20207;-62
2023/07/01 10:50:07;;;;;;;10.38;8.10;;;;;;;25.67;48.81;99413.22;5129712;27;20202;-63
2023/07/01 10:53:09;;;;;;;13.07;8.50;;;;;;;26.62;48.19;99409.47;5127373;27;20217;-63
2023/07/01 10:55:40;;;;;;;9.38;8.35;;;;;;;27.61;45.08;99404.94;5062336;28;20370;-63
2023/07/01 10:58:18;;;;;;;11.43;8.85;;;;;;;28.26;43.88;99397.09;5067273;28;20205;-63
2023/07/01 11:00:47;;;;;;;10.13;8.40;;;;;;;28.73;43.12;99395.19;5106008;27;20206;-63
2023/07/01 11:04:01;;;;;;;8.85;7.95;;;;;;;29.63;40.72;99395.16;5130056;27;20206;-63
2023/07/01 11:06:45;;;;;;;9.85;7.78;;;;;;;31.00;38.06;99394.09;5080512;27;20222;-62
2023/07/01 11:09:14;;;;;;;8.88;7.35;;;;;;;31.20;37.01;99389.28;5123048;27;20209;-62
2023/07/01 11:11:42;;;;;;;11.07;8.73;;;;;;;31.54;36.21;99388.28;5124026;27;20204;-64
2023/07/01 11:14:12;;;;;;;8.70;7.70;;;;;;;31.95;35.20;99366.91;5130318;27;20663;-63
2023/07/01 11:16:41;;;;;;;8.80;7.85;;;;;;;31.40;34.75;99362.34;5132418;27;20192;-65
2023/07/01 11:19:10;;;;;;;7.93;7.13;;;;;;;30.62;37.42;99352.94;5127944;27;20538;-66
2023/07/01 11:21:41;;;;;;;9.35;7.53;;;;;;;30.59;37.32;99342.63;5130824;27;20207;-65
2023/07/01 11:24:10;;;;;;;12.55;8.18;;;;;;;30.39;36.72;99357.22;5131063;27;20666;-64
2023/07/01 11:26:40;;;;;;;8.82;7.93;;;;;;;29.82;38.13;99369.22;5129550;27;20199;-65
2023/07/01 11:29:16;;;;;;;10.50;8.23;;;;;;;30.38;38.15;99366.16;5132789;27;20218;-65
2023/07/01 11:31:45;;;;;;;8.60;7.53;;;;;;;30.48;37.12;99366.84;5129983;27;20210;-66
2023/07/01 11:34:17;;;;;;;8.05;7.13;;;;;;;30.16;37.43;99367.53;5126316;27;20235;-65
2023/07/01 11:36:48;;;;;;;10.50;7.95;;;;;;;30.49;36.71;99349.94;5133408;27;20195;-67